KMWL

Mineral Wells Airport

Mineral Wells, Texas, USA
METAR KMWL 191553Z AUTO 32025G37KT 9SM -SN SCT031 02/M06 A3019 RMK AO2 PK WND 33037/1517 SNB44 SLP222 P0000 T00221056
Observed Flight Rules
Jan-19 @ 15:53 UTC (43 minutes ago) Visual Flight Rules
Wind Visibility Clouds Conditions
320° at 25 knots
 Gusting to 37 knots
9 miles
  • Scattered at 3,100' AGL
  • Light Snow
Temperatures Readings Precipitation
Current 2°C / 36°F
Dewpoint -6°C / 21°F
Humidity 56%
Altimeter 30.19" Hg
Pressure 1022.2 hPa
Elevation 284
Current Rain 0.01
METAR KMWL 191553Z AUTO 32025G37KT 9SM -SN SCT031 02/M06 A3019 RMK AO2 PK WND 33037/1517 SNB44 SLP222 P0000 T00221056
Observed Flight Rules
Jan-19 @ 15:53 UTC
(43 minutes ago)
VFR
Wind Visibility
320° at 25 knots
 Gusting to 37 knots
9 miles
Clouds
  • Scattered at 3,100' AGL
Conditions
  • Light Snow
Temperature Dewpoint
2°C / 36°F -6°C / 21°F
Humidity Altimeter Pressure
56% 30.19" Hg 1022.2 hPa
Current Rain
0.01